sensor_id;sensor_type;location;lat;lon;timestamp;P1;durP1;ratioP1;P2;durP2;ratioP2
28481;SDS011;15703;49.588;6.260;2023-02-14T00:01:44;14.40;;;11.97;;
28481;SDS011;15703;49.588;6.260;2023-02-14T00:04:07;15.87;;;12.33;;
28481;SDS011;15703;49.588;6.260;2023-02-14T00:06:30;14.43;;;12.40;;
28481;SDS011;15703;49.588;6.260;2023-02-14T00:08:55;19.53;;;13.37;;
28481;SDS011;15703;49.588;6.260;2023-02-14T00:11:18;15.17;;;12.23;;
28481;SDS011;15703;49.588;6.260;2023-02-14T00:13:55;17.10;;;12.53;;
28481;SDS011;15703;49.588;6.260;2023-02-14T00:16:46;13.93;;;11.17;;
28481;SDS011;15703;49.588;6.260;2023-02-14T00:19:12;15.13;;;12.50;;
28481;SDS011;15703;49.588;6.260;2023-02-14T00:21:36;14.57;;;12.37;;
28481;SDS011;15703;49.588;6.260;2023-02-14T00:23:59;17.47;;;13.37;;
28481;SDS011;15703;49.588;6.260;2023-02-14T00:26:21;19.70;;;12.87;;
28481;SDS011;15703;49.588;6.260;2023-02-14T00:28:47;14.47;;;11.63;;
28481;SDS011;15703;49.588;6.260;2023-02-14T00:31:09;13.23;;;11.53;;
28481;SDS011;15703;49.588;6.260;2023-02-14T00:33:32;16.93;;;12.87;;
28481;SDS011;15703;49.588;6.260;2023-02-14T00:35:55;20.47;;;12.10;;
28481;SDS011;15703;49.588;6.260;2023-02-14T00:38:17;16.03;;;11.50;;
28481;SDS011;15703;49.588;6.260;2023-02-14T00:40:39;15.87;;;12.07;;
28481;SDS011;15703;49.588;6.260;2023-02-14T00:43:02;15.10;;;11.63;;
28481;SDS011;15703;49.588;6.260;2023-02-14T00:45:28;13.47;;;11.27;;
28481;SDS011;15703;49.588;6.260;2023-02-14T00:47:51;14.23;;;11.63;;
28481;SDS011;15703;49.588;6.260;2023-02-14T00:50:13;13.63;;;11.30;;
28481;SDS011;15703;49.588;6.260;2023-02-14T00:52:38;13.83;;;12.13;;
28481;SDS011;15703;49.588;6.260;2023-02-14T00:55:00;15.13;;;12.17;;
28481;SDS011;15703;49.588;6.260;2023-02-14T00:57:23;14.00;;;11.37;;
28481;SDS011;15703;49.588;6.260;2023-02-14T00:59:45;11.90;;;10.30;;
28481;SDS011;15703;49.588;6.260;2023-02-14T01:02:11;12.23;;;10.77;;
28481;SDS011;15703;49.588;6.260;2023-02-14T01:04:34;13.17;;;10.77;;
28481;SDS011;15703;49.588;6.260;2023-02-14T01:07:00;15.90;;;12.27;;
28481;SDS011;15703;49.588;6.260;2023-02-14T01:09:22;17.70;;;12.43;;
28481;SDS011;15703;49.588;6.260;2023-02-14T01:11:45;13.07;;;11.27;;
28481;SDS011;15703;49.588;6.260;2023-02-14T01:14:09;13.80;;;10.70;;
28481;SDS011;15703;49.588;6.260;2023-02-14T01:16:32;16.47;;;11.17;;
28481;SDS011;15703;49.588;6.260;2023-02-14T01:18:55;15.17;;;11.40;;
28481;SDS011;15703;49.588;6.260;2023-02-14T01:21:44;16.00;;;11.73;;
28481;SDS011;15703;49.588;6.260;2023-02-14T01:24:07;15.17;;;11.83;;
28481;SDS011;15703;49.588;6.260;2023-02-14T01:26:34;14.93;;;11.80;;
28481;SDS011;15703;49.588;6.260;2023-02-14T01:28:57;16.50;;;12.20;;
28481;SDS011;15703;49.588;6.260;2023-02-14T01:31:23;14.13;;;10.93;;
28481;SDS011;15703;49.588;6.260;2023-02-14T01:33:49;15.70;;;12.80;;
28481;SDS011;15703;49.588;6.260;2023-02-14T01:38:40;14.07;;;12.00;;
28481;SDS011;15703;49.588;6.260;2023-02-14T01:41:03;14.03;;;11.50;;
28481;SDS011;15703;49.588;6.260;2023-02-14T01:47:41;14.03;;;10.90;;
28481;SDS011;15703;49.588;6.260;2023-02-14T01:50:24;16.33;;;11.77;;
28481;SDS011;15703;49.588;6.260;2023-02-14T01:53:11;15.27;;;12.00;;
28481;SDS011;15703;49.588;6.260;2023-02-14T01:55:37;13.00;;;10.33;;
28481;SDS011;15703;49.588;6.260;2023-02-14T01:58:40;12.77;;;10.77;;
28481;SDS011;15703;49.588;6.260;2023-02-14T02:01:05;14.70;;;11.27;;
28481;SDS011;15703;49.588;6.260;2023-02-14T02:03:33;14.97;;;11.00;;
28481;SDS011;15703;49.588;6.260;2023-02-14T02:06:35;15.43;;;11.67;;
28481;SDS011;15703;49.588;6.260;2023-02-14T02:09:07;13.40;;;10.70;;
28481;SDS011;15703;49.588;6.260;2023-02-14T02:11:33;14.27;;;11.33;;
28481;SDS011;15703;49.588;6.260;2023-02-14T02:13:59;16.93;;;11.37;;
28481;SDS011;15703;49.588;6.260;2023-02-14T02:24:05;16.27;;;12.40;;
28481;SDS011;15703;49.588;6.260;2023-02-14T02:31:36;15.70;;;12.30;;
28481;SDS011;15703;49.588;6.260;2023-02-14T02:37:50;16.50;;;11.63;;
28481;SDS011;15703;49.588;6.260;2023-02-14T02:44:56;13.60;;;10.83;;
28481;SDS011;15703;49.588;6.260;2023-02-14T02:47:31;15.80;;;11.70;;
28481;SDS011;15703;49.588;6.260;2023-02-14T02:52:44;20.70;;;13.17;;
28481;SDS011;15703;49.588;6.260;2023-02-14T02:58:18;14.97;;;12.97;;
28481;SDS011;15703;49.588;6.260;2023-02-14T03:00:41;14.37;;;11.73;;
28481;SDS011;15703;49.588;6.260;2023-02-14T03:03:04;15.37;;;11.87;;
28481;SDS011;15703;49.588;6.260;2023-02-14T03:05:45;17.63;;;13.23;;
28481;SDS011;15703;49.588;6.260;2023-02-14T03:08:10;14.87;;;11.93;;
28481;SDS011;15703;49.588;6.260;2023-02-14T03:10:34;17.47;;;12.63;;
28481;SDS011;15703;49.588;6.260;2023-02-14T03:13:04;17.37;;;12.73;;
28481;SDS011;15703;49.588;6.260;2023-02-14T03:21:34;14.70;;;12.20;;
28481;SDS011;15703;49.588;6.260;2023-02-14T03:24:24;16.10;;;12.53;;
28481;SDS011;15703;49.588;6.260;2023-02-14T03:30:23;18.27;;;12.23;;
28481;SDS011;15703;49.588;6.260;2023-02-14T03:33:00;17.53;;;12.40;;
28481;SDS011;15703;49.588;6.260;2023-02-14T03:35:28;15.73;;;12.90;;
28481;SDS011;15703;49.588;6.260;2023-02-14T03:38:01;16.77;;;12.50;;
28481;SDS011;15703;49.588;6.260;2023-02-14T03:43:00;19.90;;;13.53;;
28481;SDS011;15703;49.588;6.260;2023-02-14T03:45:29;20.43;;;13.90;;
28481;SDS011;15703;49.588;6.260;2023-02-14T03:47:54;18.30;;;13.27;;
28481;SDS011;15703;49.588;6.260;2023-02-14T03:50:18;19.30;;;13.07;;
28481;SDS011;15703;49.588;6.260;2023-02-14T03:53:06;18.97;;;14.23;;
28481;SDS011;15703;49.588;6.260;2023-02-14T03:55:50;17.90;;;13.57;;
28481;SDS011;15703;49.588;6.260;2023-02-14T03:58:29;21.80;;;15.50;;
28481;SDS011;15703;49.588;6.260;2023-02-14T04:00:57;19.13;;;14.80;;
28481;SDS011;15703;49.588;6.260;2023-02-14T04:03:22;21.40;;;13.90;;
28481;SDS011;15703;49.588;6.260;2023-02-14T04:05:46;22.17;;;15.00;;
28481;SDS011;15703;49.588;6.260;2023-02-14T04:08:22;21.63;;;13.53;;
28481;SDS011;15703;49.588;6.260;2023-02-14T04:13:33;21.50;;;15.23;;
28481;SDS011;15703;49.588;6.260;2023-02-14T04:16:10;18.43;;;13.07;;
28481;SDS011;15703;49.588;6.260;2023-02-14T04:18:33;15.43;;;12.63;;
28481;SDS011;15703;49.588;6.260;2023-02-14T04:21:54;14.63;;;11.97;;
28481;SDS011;15703;49.588;6.260;2023-02-14T04:24:33;18.03;;;13.60;;
28481;SDS011;15703;49.588;6.260;2023-02-14T04:26:56;19.60;;;13.47;;
28481;SDS011;15703;49.588;6.260;2023-02-14T04:29:33;22.13;;;14.73;;
28481;SDS011;15703;49.588;6.260;2023-02-14T04:32:17;19.00;;;12.60;;
28481;SDS011;15703;49.588;6.260;2023-02-14T04:34:58;20.10;;;14.27;;
28481;SDS011;15703;49.588;6.260;2023-02-14T04:37:31;22.27;;;14.83;;
28481;SDS011;15703;49.588;6.260;2023-02-14T04:40:14;19.33;;;13.20;;
28481;SDS011;15703;49.588;6.260;2023-02-14T04:42:41;13.97;;;11.50;;
28481;SDS011;15703;49.588;6.260;2023-02-14T04:45:05;15.20;;;12.20;;
28481;SDS011;15703;49.588;6.260;2023-02-14T04:47:30;16.83;;;12.50;;
28481;SDS011;15703;49.588;6.260;2023-02-14T04:49:56;18.80;;;12.93;;
28481;SDS011;15703;49.588;6.260;2023-02-14T04:52:22;19.40;;;13.47;;
28481;SDS011;15703;49.588;6.260;2023-02-14T04:55:15;19.10;;;12.93;;
28481;SDS011;15703;49.588;6.260;2023-02-14T04:57:40;20.80;;;14.23;;
28481;SDS011;15703;49.588;6.260;2023-02-14T05:00:04;18.90;;;13.47;;
28481;SDS011;15703;49.588;6.260;2023-02-14T05:03:06;17.03;;;13.10;;
28481;SDS011;15703;49.588;6.260;2023-02-14T05:05:31;21.40;;;14.77;;
28481;SDS011;15703;49.588;6.260;2023-02-14T05:08:33;19.67;;;13.70;;
28481;SDS011;15703;49.588;6.260;2023-02-14T05:10:56;14.57;;;12.97;;
28481;SDS011;15703;49.588;6.260;2023-02-14T05:13:19;19.10;;;13.27;;
28481;SDS011;15703;49.588;6.260;2023-02-14T05:19:44;16.23;;;13.13;;
28481;SDS011;15703;49.588;6.260;2023-02-14T05:22:46;19.67;;;14.63;;
28481;SDS011;15703;49.588;6.260;2023-02-14T05:25:27;21.60;;;13.73;;
28481;SDS011;15703;49.588;6.260;2023-02-14T05:27:54;17.60;;;13.10;;
28481;SDS011;15703;49.588;6.260;2023-02-14T05:30:48;21.17;;;15.17;;
28481;SDS011;15703;49.588;6.260;2023-02-14T05:33:11;16.20;;;13.73;;
28481;SDS011;15703;49.588;6.260;2023-02-14T05:36:13;19.97;;;13.23;;
28481;SDS011;15703;49.588;6.260;2023-02-14T05:39:00;18.23;;;12.90;;
28481;SDS011;15703;49.588;6.260;2023-02-14T05:41:23;15.47;;;12.90;;
28481;SDS011;15703;49.588;6.260;2023-02-14T05:43:47;15.53;;;12.20;;
28481;SDS011;15703;49.588;6.260;2023-02-14T05:46:10;15.57;;;12.83;;
28481;SDS011;15703;49.588;6.260;2023-02-14T05:48:33;15.93;;;13.10;;
28481;SDS011;15703;49.588;6.260;2023-02-14T05:51:17;18.50;;;13.50;;
28481;SDS011;15703;49.588;6.260;2023-02-14T05:53:41;15.33;;;13.30;;
28481;SDS011;15703;49.588;6.260;2023-02-14T05:56:06;20.03;;;14.57;;
28481;SDS011;15703;49.588;6.260;2023-02-14T05:58:30;20.03;;;13.80;;
28481;SDS011;15703;49.588;6.260;2023-02-14T06:01:03;19.97;;;15.80;;
28481;SDS011;15703;49.588;6.260;2023-02-14T06:03:27;15.47;;;13.10;;
28481;SDS011;15703;49.588;6.260;2023-02-14T06:05:50;20.67;;;15.10;;
28481;SDS011;15703;49.588;6.260;2023-02-14T06:08:14;19.20;;;14.57;;
28481;SDS011;15703;49.588;6.260;2023-02-14T06:10:40;17.03;;;13.03;;
28481;SDS011;15703;49.588;6.260;2023-02-14T06:13:41;23.63;;;15.93;;
28481;SDS011;15703;49.588;6.260;2023-02-14T06:16:10;20.87;;;15.43;;
28481;SDS011;15703;49.588;6.260;2023-02-14T06:18:56;16.57;;;13.57;;
28481;SDS011;15703;49.588;6.260;2023-02-14T06:33:16;18.93;;;14.20;;
28481;SDS011;15703;49.588;6.260;2023-02-14T06:35:45;20.80;;;15.27;;
28481;SDS011;15703;49.588;6.260;2023-02-14T06:42:26;21.13;;;14.50;;
28481;SDS011;15703;49.588;6.260;2023-02-14T06:45:18;23.27;;;15.67;;
28481;SDS011;15703;49.588;6.260;2023-02-14T06:47:48;22.37;;;15.47;;
28481;SDS011;15703;49.588;6.260;2023-02-14T06:50:13;22.33;;;15.70;;
28481;SDS011;15703;49.588;6.260;2023-02-14T06:56:52;20.93;;;14.63;;
28481;SDS011;15703;49.588;6.260;2023-02-14T06:59:34;18.47;;;13.73;;
28481;SDS011;15703;49.588;6.260;2023-02-14T07:14:57;24.47;;;16.03;;
28481;SDS011;15703;49.588;6.260;2023-02-14T07:17:38;29.87;;;17.80;;
28481;SDS011;15703;49.588;6.260;2023-02-14T07:20:09;24.60;;;16.20;;
28481;SDS011;15703;49.588;6.260;2023-02-14T07:23:14;25.07;;;16.30;;
28481;SDS011;15703;49.588;6.260;2023-02-14T07:26:14;29.07;;;17.60;;
28481;SDS011;15703;49.588;6.260;2023-02-14T07:28:43;32.27;;;18.47;;
28481;SDS011;15703;49.588;6.260;2023-02-14T07:39:44;29.80;;;18.00;;
28481;SDS011;15703;49.588;6.260;2023-02-14T07:42:07;28.60;;;17.20;;
28481;SDS011;15703;49.588;6.260;2023-02-14T07:45:10;29.70;;;18.40;;
28481;SDS011;15703;49.588;6.260;2023-02-14T07:48:17;33.37;;;19.27;;
28481;SDS011;15703;49.588;6.260;2023-02-14T07:51:18;31.63;;;17.77;;
28481;SDS011;15703;49.588;6.260;2023-02-14T07:53:41;29.07;;;16.90;;
28481;SDS011;15703;49.588;6.260;2023-02-14T07:56:06;30.80;;;17.03;;
28481;SDS011;15703;49.588;6.260;2023-02-14T07:58:34;32.60;;;18.23;;
28481;SDS011;15703;49.588;6.260;2023-02-14T08:00:57;24.47;;;16.47;;
28481;SDS011;15703;49.588;6.260;2023-02-14T08:03:25;28.30;;;18.43;;
28481;SDS011;15703;49.588;6.260;2023-02-14T08:05:47;23.33;;;16.93;;
28481;SDS011;15703;49.588;6.260;2023-02-14T08:08:17;28.70;;;17.20;;
28481;SDS011;15703;49.588;6.260;2023-02-14T08:10:40;28.70;;;18.90;;
28481;SDS011;15703;49.588;6.260;2023-02-14T08:13:02;46.20;;;25.53;;
28481;SDS011;15703;49.588;6.260;2023-02-14T08:15:25;30.67;;;18.83;;
28481;SDS011;15703;49.588;6.260;2023-02-14T08:18:06;27.10;;;17.90;;
28481;SDS011;15703;49.588;6.260;2023-02-14T08:20:28;27.70;;;18.40;;
28481;SDS011;15703;49.588;6.260;2023-02-14T08:22:51;27.80;;;17.37;;
28481;SDS011;15703;49.588;6.260;2023-02-14T08:25:13;25.30;;;18.00;;
28481;SDS011;15703;49.588;6.260;2023-02-14T08:27:35;24.33;;;17.67;;
28481;SDS011;15703;49.588;6.260;2023-02-14T08:29:57;24.33;;;16.80;;
28481;SDS011;15703;49.588;6.260;2023-02-14T08:32:20;22.57;;;16.47;;
28481;SDS011;15703;49.588;6.260;2023-02-14T08:34:42;26.07;;;17.17;;
28481;SDS011;15703;49.588;6.260;2023-02-14T08:37:04;24.17;;;16.23;;
28481;SDS011;15703;49.588;6.260;2023-02-14T08:39:27;24.33;;;15.90;;
28481;SDS011;15703;49.588;6.260;2023-02-14T08:41:49;22.23;;;16.57;;
28481;SDS011;15703;49.588;6.260;2023-02-14T08:44:11;28.13;;;14.80;;
28481;SDS011;15703;49.588;6.260;2023-02-14T08:46:33;22.70;;;15.57;;
28481;SDS011;15703;49.588;6.260;2023-02-14T08:48:56;21.20;;;14.07;;
28481;SDS011;15703;49.588;6.260;2023-02-14T08:51:18;19.77;;;14.10;;
28481;SDS011;15703;49.588;6.260;2023-02-14T08:53:41;27.20;;;14.60;;
28481;SDS011;15703;49.588;6.260;2023-02-14T08:56:07;20.30;;;15.63;;
28481;SDS011;15703;49.588;6.260;2023-02-14T08:58:29;24.00;;;15.10;;
28481;SDS011;15703;49.588;6.260;2023-02-14T09:00:53;31.67;;;18.70;;
28481;SDS011;15703;49.588;6.260;2023-02-14T09:03:16;31.27;;;21.07;;
28481;SDS011;15703;49.588;6.260;2023-02-14T09:05:38;23.80;;;17.37;;
28481;SDS011;15703;49.588;6.260;2023-02-14T09:08:01;22.30;;;18.00;;
28481;SDS011;15703;49.588;6.260;2023-02-14T09:10:23;19.63;;;16.40;;
28481;SDS011;15703;49.588;6.260;2023-02-14T09:12:45;20.20;;;13.67;;
28481;SDS011;15703;49.588;6.260;2023-02-14T09:15:08;19.60;;;15.13;;
28481;SDS011;15703;49.588;6.260;2023-02-14T09:17:31;18.33;;;15.23;;
28481;SDS011;15703;49.588;6.260;2023-02-14T09:19:55;19.43;;;13.93;;
28481;SDS011;15703;49.588;6.260;2023-02-14T09:22:20;18.23;;;13.87;;
28481;SDS011;15703;49.588;6.260;2023-02-14T09:24:48;18.47;;;13.33;;
28481;SDS011;15703;49.588;6.260;2023-02-14T09:27:10;16.03;;;13.03;;
28481;SDS011;15703;49.588;6.260;2023-02-14T09:29:33;15.67;;;11.90;;
28481;SDS011;15703;49.588;6.260;2023-02-14T09:31:56;13.70;;;10.47;;
28481;SDS011;15703;49.588;6.260;2023-02-14T09:34:20;10.80;;;9.70;;
28481;SDS011;15703;49.588;6.260;2023-02-14T09:36:46;11.67;;;10.17;;
28481;SDS011;15703;49.588;6.260;2023-02-14T09:39:27;11.80;;;9.60;;
28481;SDS011;15703;49.588;6.260;2023-02-14T09:42:57;11.07;;;9.33;;
28481;SDS011;15703;49.588;6.260;2023-02-14T09:44:50;11.40;;;9.33;;
28481;SDS011;15703;49.588;6.260;2023-02-14T09:49:57;9.97;;;8.43;;
28481;SDS011;15703;49.588;6.260;2023-02-14T09:52:21;11.33;;;9.20;;
28481;SDS011;15703;49.588;6.260;2023-02-14T09:54:52;19.77;;;14.63;;
28481;SDS011;15703;49.588;6.260;2023-02-14T09:57:20;19.27;;;13.87;;
28481;SDS011;15703;49.588;6.260;2023-02-14T09:59:52;11.20;;;9.60;;
28481;SDS011;15703;49.588;6.260;2023-02-14T10:07:17;11.77;;;8.97;;
28481;SDS011;15703;49.588;6.260;2023-02-14T10:14:47;15.20;;;11.23;;
28481;SDS011;15703;49.588;6.260;2023-02-14T10:19:53;13.83;;;11.10;;
28481;SDS011;15703;49.588;6.260;2023-02-14T10:22:18;11.57;;;10.30;;
28481;SDS011;15703;49.588;6.260;2023-02-14T10:24:44;16.17;;;12.13;;
28481;SDS011;15703;49.588;6.260;2023-02-14T10:27:17;15.73;;;11.30;;
28481;SDS011;15703;49.588;6.260;2023-02-14T10:29:54;15.70;;;10.93;;
28481;SDS011;15703;49.588;6.260;2023-02-14T10:32:18;13.90;;;11.80;;
28481;SDS011;15703;49.588;6.260;2023-02-14T10:34:47;13.90;;;11.53;;
28481;SDS011;15703;49.588;6.260;2023-02-14T10:58:10;18.20;;;14.37;;
28481;SDS011;15703;49.588;6.260;2023-02-14T11:00:36;18.97;;;13.87;;
28481;SDS011;15703;49.588;6.260;2023-02-14T11:03:00;26.67;;;14.87;;
28481;SDS011;15703;49.588;6.260;2023-02-14T11:05:31;19.80;;;14.10;;
28481;SDS011;15703;49.588;6.260;2023-02-14T11:08:32;20.07;;;15.07;;
28481;SDS011;15703;49.588;6.260;2023-02-14T11:10:54;21.13;;;15.33;;
28481;SDS011;15703;49.588;6.260;2023-02-14T11:13:35;22.97;;;15.40;;
28481;SDS011;15703;49.588;6.260;2023-02-14T11:15:58;18.33;;;14.27;;
28481;SDS011;15703;49.588;6.260;2023-02-14T11:18:22;17.03;;;13.80;;
28481;SDS011;15703;49.588;6.260;2023-02-14T11:20:57;19.80;;;14.83;;
28481;SDS011;15703;49.588;6.260;2023-02-14T11:23:22;19.57;;;15.10;;
28481;SDS011;15703;49.588;6.260;2023-02-14T11:25:49;21.43;;;14.83;;
28481;SDS011;15703;49.588;6.260;2023-02-14T11:28:12;19.60;;;15.43;;
28481;SDS011;15703;49.588;6.260;2023-02-14T11:30:38;22.17;;;15.40;;
28481;SDS011;15703;49.588;6.260;2023-02-14T11:33:03;17.57;;;14.63;;
28481;SDS011;15703;49.588;6.260;2023-02-14T11:35:26;24.03;;;15.27;;
28481;SDS011;15703;49.588;6.260;2023-02-14T11:37:55;21.97;;;14.57;;
28481;SDS011;15703;49.588;6.260;2023-02-14T11:42:47;18.73;;;14.73;;
28481;SDS011;15703;49.588;6.260;2023-02-14T11:47:49;19.10;;;14.63;;
28481;SDS011;15703;49.588;6.260;2023-02-14T11:50:27;22.40;;;16.23;;
28481;SDS011;15703;49.588;6.260;2023-02-14T11:52:51;24.17;;;15.30;;
28481;SDS011;15703;49.588;6.260;2023-02-14T11:55:25;21.73;;;14.90;;
28481;SDS011;15703;49.588;6.260;2023-02-14T11:57:48;21.13;;;15.60;;
28481;SDS011;15703;49.588;6.260;2023-02-14T12:00:14;18.40;;;14.53;;
28481;SDS011;15703;49.588;6.260;2023-02-14T12:02:38;18.83;;;14.40;;
28481;SDS011;15703;49.588;6.260;2023-02-14T12:05:06;20.50;;;15.63;;
28481;SDS011;15703;49.588;6.260;2023-02-14T12:07:59;17.93;;;14.70;;
28481;SDS011;15703;49.588;6.260;2023-02-14T12:10:32;21.43;;;14.17;;
28481;SDS011;15703;49.588;6.260;2023-02-14T12:13:02;19.47;;;15.13;;
28481;SDS011;15703;49.588;6.260;2023-02-14T12:15:27;20.87;;;15.90;;
28481;SDS011;15703;49.588;6.260;2023-02-14T12:17:52;22.30;;;16.53;;
28481;SDS011;15703;49.588;6.260;2023-02-14T12:20:18;19.97;;;15.60;;
28481;SDS011;15703;49.588;6.260;2023-02-14T12:22:47;25.67;;;17.00;;
28481;SDS011;15703;49.588;6.260;2023-02-14T12:25:13;22.23;;;15.27;;
28481;SDS011;15703;49.588;6.260;2023-02-14T12:27:46;20.57;;;16.17;;
28481;SDS011;15703;49.588;6.260;2023-02-14T12:30:20;24.50;;;16.23;;
28481;SDS011;15703;49.588;6.260;2023-02-14T12:32:47;21.00;;;16.57;;
28481;SDS011;15703;49.588;6.260;2023-02-14T12:35:17;18.60;;;15.63;;
28481;SDS011;15703;49.588;6.260;2023-02-14T12:51:33;20.30;;;15.00;;
28481;SDS011;15703;49.588;6.260;2023-02-14T12:54:03;20.57;;;14.63;;
28481;SDS011;15703;49.588;6.260;2023-02-14T12:59:20;19.50;;;14.17;;
28481;SDS011;15703;49.588;6.260;2023-02-14T13:04:42;17.93;;;14.23;;
28481;SDS011;15703;49.588;6.260;2023-02-14T13:09:57;20.67;;;14.67;;
28481;SDS011;15703;49.588;6.260;2023-02-14T13:12:28;21.87;;;15.43;;
28481;SDS011;15703;49.588;6.260;2023-02-14T13:15:57;22.77;;;15.47;;
28481;SDS011;15703;49.588;6.260;2023-02-14T13:23:16;21.47;;;16.27;;
28481;SDS011;15703;49.588;6.260;2023-02-14T13:26:10;27.00;;;15.73;;
28481;SDS011;15703;49.588;6.260;2023-02-14T13:28:35;27.20;;;16.45;;
28481;SDS011;15703;49.588;6.260;2023-02-14T13:31:00;24.67;;;15.80;;
28481;SDS011;15703;49.588;6.260;2023-02-14T13:33:37;21.90;;;15.77;;
28481;SDS011;15703;49.588;6.260;2023-02-14T13:36:07;26.38;;;16.75;;
28481;SDS011;15703;49.588;6.260;2023-02-14T13:38:52;21.15;;;15.23;;
28481;SDS011;15703;49.588;6.260;2023-02-14T13:41:20;27.25;;;15.77;;
28481;SDS011;15703;49.588;6.260;2023-02-14T13:43:55;25.13;;;17.83;;
28481;SDS011;15703;49.588;6.260;2023-02-14T13:46:19;23.77;;;17.27;;
28481;SDS011;15703;49.588;6.260;2023-02-14T13:48:42;22.53;;;16.23;;
28481;SDS011;15703;49.588;6.260;2023-02-14T13:51:18;26.13;;;17.77;;
28481;SDS011;15703;49.588;6.260;2023-02-14T13:53:47;24.33;;;17.02;;
28481;SDS011;15703;49.588;6.260;2023-02-14T13:59:21;25.40;;;17.35;;
28481;SDS011;15703;49.588;6.260;2023-02-14T14:01:43;25.92;;;16.75;;
28481;SDS011;15703;49.588;6.260;2023-02-14T14:12:07;29.50;;;18.70;;
28481;SDS011;15703;49.588;6.260;2023-02-14T14:14:51;27.50;;;19.40;;
28481;SDS011;15703;49.588;6.260;2023-02-14T14:20:49;27.35;;;18.92;;
28481;SDS011;15703;49.588;6.260;2023-02-14T14:23:29;29.98;;;19.85;;
28481;SDS011;15703;49.588;6.260;2023-02-14T14:25:52;31.37;;;19.27;;
28481;SDS011;15703;49.588;6.260;2023-02-14T14:28:19;32.77;;;19.97;;
28481;SDS011;15703;49.588;6.260;2023-02-14T14:30:42;30.00;;;19.30;;
28481;SDS011;15703;49.588;6.260;2023-02-14T14:33:12;29.33;;;19.70;;
28481;SDS011;15703;49.588;6.260;2023-02-14T14:38:31;32.08;;;19.83;;
28481;SDS011;15703;49.588;6.260;2023-02-14T14:40:56;29.98;;;18.40;;
28481;SDS011;15703;49.588;6.260;2023-02-14T14:45:44;35.72;;;20.50;;
28481;SDS011;15703;49.588;6.260;2023-02-14T14:48:08;36.05;;;20.40;;
28481;SDS011;15703;49.588;6.260;2023-02-14T14:50:32;36.90;;;20.30;;
28481;SDS011;15703;49.588;6.260;2023-02-14T14:52:58;28.57;;;18.17;;
28481;SDS011;15703;49.588;6.260;2023-02-14T14:55:27;30.92;;;18.95;;
28481;SDS011;15703;49.588;6.260;2023-02-14T14:57:54;30.40;;;18.57;;
28481;SDS011;15703;49.588;6.260;2023-02-14T15:02:53;26.47;;;17.43;;
28481;SDS011;15703;49.588;6.260;2023-02-14T15:05:22;31.08;;;18.08;;
28481;SDS011;15703;49.588;6.260;2023-02-14T15:11:36;24.65;;;17.48;;
28481;SDS011;15703;49.588;6.260;2023-02-14T15:14:23;26.05;;;18.08;;
28481;SDS011;15703;49.588;6.260;2023-02-14T15:16:51;27.20;;;18.02;;
28481;SDS011;15703;49.588;6.260;2023-02-14T15:19:41;27.87;;;17.70;;
28481;SDS011;15703;49.588;6.260;2023-02-14T15:22:06;25.80;;;16.98;;
28481;SDS011;15703;49.588;6.260;2023-02-14T15:24:29;25.90;;;17.33;;
28481;SDS011;15703;49.588;6.260;2023-02-14T15:27:01;27.88;;;18.20;;
28481;SDS011;15703;49.588;6.260;2023-02-14T15:30:04;25.10;;;17.63;;
28481;SDS011;15703;49.588;6.260;2023-02-14T15:32:33;24.08;;;18.20;;
28481;SDS011;15703;49.588;6.260;2023-02-14T15:34:57;33.63;;;19.55;;
28481;SDS011;15703;49.588;6.260;2023-02-14T15:37:21;30.48;;;17.85;;
28481;SDS011;15703;49.588;6.260;2023-02-14T15:40:24;24.08;;;17.58;;
28481;SDS011;15703;49.588;6.260;2023-02-14T15:43:32;25.75;;;17.77;;
28481;SDS011;15703;49.588;6.260;2023-02-14T15:48:42;27.33;;;18.93;;
28481;SDS011;15703;49.588;6.260;2023-02-14T15:51:05;26.58;;;17.92;;
28481;SDS011;15703;49.588;6.260;2023-02-14T15:53:40;27.00;;;18.03;;
28481;SDS011;15703;49.588;6.260;2023-02-14T15:58:42;26.97;;;17.30;;
28481;SDS011;15703;49.588;6.260;2023-02-14T16:01:06;26.00;;;18.13;;
28481;SDS011;15703;49.588;6.260;2023-02-14T16:03:31;25.43;;;17.27;;
28481;SDS011;15703;49.588;6.260;2023-02-14T16:05:56;31.50;;;19.53;;
28481;SDS011;15703;49.588;6.260;2023-02-14T16:08:29;22.97;;;17.50;;
28481;SDS011;15703;49.588;6.260;2023-02-14T16:13:29;23.97;;;17.37;;
28481;SDS011;15703;49.588;6.260;2023-02-14T16:15:59;24.40;;;16.97;;
28481;SDS011;15703;49.588;6.260;2023-02-14T16:18:59;24.70;;;17.13;;
28481;SDS011;15703;49.588;6.260;2023-02-14T16:21:22;25.57;;;17.90;;
28481;SDS011;15703;49.588;6.260;2023-02-14T16:24:31;30.87;;;19.33;;
28481;SDS011;15703;49.588;6.260;2023-02-14T16:26:29;26.07;;;17.20;;
28481;SDS011;15703;49.588;6.260;2023-02-14T16:28:54;27.83;;;17.70;;
28481;SDS011;15703;49.588;6.260;2023-02-14T16:31:16;26.93;;;17.63;;
28481;SDS011;15703;49.588;6.260;2023-02-14T16:33:39;43.77;;;26.40;;
28481;SDS011;15703;49.588;6.260;2023-02-14T16:36:06;32.87;;;21.80;;
28481;SDS011;15703;49.588;6.260;2023-02-14T16:38:29;30.37;;;18.17;;
28481;SDS011;15703;49.588;6.260;2023-02-14T16:40:54;30.57;;;20.67;;
28481;SDS011;15703;49.588;6.260;2023-02-14T16:43:17;28.83;;;18.50;;
28481;SDS011;15703;49.588;6.260;2023-02-14T16:45:40;32.10;;;17.77;;
28481;SDS011;15703;49.588;6.260;2023-02-14T16:48:03;23.07;;;15.63;;
28481;SDS011;15703;49.588;6.260;2023-02-14T16:50:25;25.40;;;17.17;;
28481;SDS011;15703;49.588;6.260;2023-02-14T16:52:48;27.73;;;17.53;;
28481;SDS011;15703;49.588;6.260;2023-02-14T16:55:15;28.43;;;17.60;;
28481;SDS011;15703;49.588;6.260;2023-02-14T16:57:41;24.27;;;16.07;;
28481;SDS011;15703;49.588;6.260;2023-02-14T17:00:04;30.37;;;18.30;;
28481;SDS011;15703;49.588;6.260;2023-02-14T17:02:33;35.83;;;21.17;;
28481;SDS011;15703;49.588;6.260;2023-02-14T17:04:55;30.60;;;19.60;;
28481;SDS011;15703;49.588;6.260;2023-02-14T17:07:18;37.43;;;18.30;;
28481;SDS011;15703;49.588;6.260;2023-02-14T17:09:41;26.47;;;17.67;;
28481;SDS011;15703;49.588;6.260;2023-02-14T17:12:08;26.17;;;16.67;;
28481;SDS011;15703;49.588;6.260;2023-02-14T17:14:34;27.17;;;18.17;;
28481;SDS011;15703;49.588;6.260;2023-02-14T17:16:57;29.43;;;18.83;;
28481;SDS011;15703;49.588;6.260;2023-02-14T17:19:19;33.53;;;18.93;;
28481;SDS011;15703;49.588;6.260;2023-02-14T17:21:42;29.40;;;19.20;;
28481;SDS011;15703;49.588;6.260;2023-02-14T17:24:05;30.50;;;18.17;;
28481;SDS011;15703;49.588;6.260;2023-02-14T17:26:27;30.93;;;18.23;;
28481;SDS011;15703;49.588;6.260;2023-02-14T17:28:50;28.63;;;17.87;;
28481;SDS011;15703;49.588;6.260;2023-02-14T17:31:12;29.87;;;17.20;;
28481;SDS011;15703;49.588;6.260;2023-02-14T17:33:35;27.70;;;17.23;;
28481;SDS011;15703;49.588;6.260;2023-02-14T17:36:07;22.97;;;16.67;;
28481;SDS011;15703;49.588;6.260;2023-02-14T17:38:32;32.10;;;18.10;;
28481;SDS011;15703;49.588;6.260;2023-02-14T17:40:56;27.70;;;18.70;;
28481;SDS011;15703;49.588;6.260;2023-02-14T17:43:18;27.83;;;18.53;;
28481;SDS011;15703;49.588;6.260;2023-02-14T17:45:41;34.40;;;20.00;;
28481;SDS011;15703;49.588;6.260;2023-02-14T17:48:03;32.10;;;19.60;;
28481;SDS011;15703;49.588;6.260;2023-02-14T17:50:26;30.87;;;19.93;;
28481;SDS011;15703;49.588;6.260;2023-02-14T17:52:51;29.73;;;19.20;;